sensor_id;sensor_type;location;lat;lon;timestamp;pressure;altitude;pressure_sealevel;temperature;humidity
54146;BME280;65909;49.422;7.738;2023-04-04T00:01:38;78055.66;;;-145.25;50.74
54146;BME280;65909;49.422;7.738;2023-04-04T00:04:03;78063.69;;;-145.25;49.04
54146;BME280;65909;49.422;7.738;2023-04-04T00:06:29;78071.72;;;-145.25;48.97
54146;BME280;65909;49.422;7.738;2023-04-04T00:08:54;78079.72;;;-145.25;48.95
54146;BME280;65909;49.422;7.738;2023-04-04T00:11:19;78079.72;;;-145.25;49.72
54146;BME280;65909;49.422;7.738;2023-04-04T00:13:46;78077.72;;;-145.25;50.16
54146;BME280;65909;49.422;7.738;2023-04-04T00:16:11;78077.72;;;-145.25;49.05
54146;BME280;65909;49.422;7.738;2023-04-04T00:18:37;78077.72;;;-145.25;49.14
54146;BME280;65909;49.422;7.738;2023-04-04T00:21:03;78075.72;;;-145.25;49.00
54146;BME280;65909;49.422;7.738;2023-04-04T00:23:28;78079.72;;;-145.25;49.06
54146;BME280;65909;49.422;7.738;2023-04-04T00:25:53;78091.78;;;-145.25;49.50
54146;BME280;65909;49.422;7.738;2023-04-04T00:28:19;78083.75;;;-145.25;50.39
54146;BME280;65909;49.422;7.738;2023-04-04T00:30:45;78083.75;;;-145.25;50.21
54146;BME280;65909;49.422;7.738;2023-04-04T00:33:11;78091.78;;;-145.25;49.63
54146;BME280;65909;49.422;7.738;2023-04-04T00:35:37;78089.75;;;-145.25;49.71
54146;BME280;65909;49.422;7.738;2023-04-04T00:38:02;78091.78;;;-145.25;50.04
54146;BME280;65909;49.422;7.738;2023-04-04T00:40:27;78097.78;;;-145.25;49.26
54146;BME280;65909;49.422;7.738;2023-04-04T00:42:53;78101.78;;;-145.25;50.39
54146;BME280;65909;49.422;7.738;2023-04-04T00:45:18;78099.78;;;-145.25;50.11
54146;BME280;65909;49.422;7.738;2023-04-04T00:47:45;78103.81;;;-145.25;49.71
54146;BME280;65909;49.422;7.738;2023-04-04T00:50:10;78105.81;;;-145.25;49.89
54146;BME280;65909;49.422;7.738;2023-04-04T00:52:36;78103.81;;;-145.25;49.57
54146;BME280;65909;49.422;7.738;2023-04-04T00:55:02;78105.81;;;-145.25;49.50
54146;BME280;65909;49.422;7.738;2023-04-04T00:57:28;78111.81;;;-145.25;49.77
54146;BME280;65909;49.422;7.738;2023-04-04T00:59:56;78115.84;;;-145.25;50.06
54146;BME280;65909;49.422;7.738;2023-04-04T01:02:23;78109.81;;;-145.25;49.57
54146;BME280;65909;49.422;7.738;2023-04-04T01:04:49;78115.84;;;-145.25;50.06
54146;BME280;65909;49.422;7.738;2023-04-04T01:07:15;78111.81;;;-145.25;49.50
54146;BME280;65909;49.422;7.738;2023-04-04T01:09:41;78111.81;;;-145.25;49.48
54146;BME280;65909;49.422;7.738;2023-04-04T01:12:07;78119.84;;;-145.25;49.40
54146;BME280;65909;49.422;7.738;2023-04-04T01:14:32;78121.84;;;-145.25;49.45
54146;BME280;65909;49.422;7.738;2023-04-04T01:16:58;78125.88;;;-145.25;49.40
54146;BME280;65909;49.422;7.738;2023-04-04T01:19:32;78127.88;;;-145.25;49.94
54146;BME280;65909;49.422;7.738;2023-04-04T01:22:00;78135.91;;;-145.25;49.81
54146;BME280;65909;49.422;7.738;2023-04-04T01:24:27;78127.88;;;-145.25;50.86
54146;BME280;65909;49.422;7.738;2023-04-04T01:26:56;78115.84;;;-145.25;49.77
54146;BME280;65909;49.422;7.738;2023-04-04T01:29:22;78121.84;;;-145.25;50.20
54146;BME280;65909;49.422;7.738;2023-04-04T01:31:54;78117.84;;;-145.25;50.31
54146;BME280;65909;49.422;7.738;2023-04-04T01:34:42;78119.84;;;-145.25;50.66
54146;BME280;65909;49.422;7.738;2023-04-04T01:37:33;78125.88;;;-145.25;49.49
54146;BME280;65909;49.422;7.738;2023-04-04T01:40:09;78129.88;;;-145.25;50.76
54146;BME280;65909;49.422;7.738;2023-04-04T01:42:36;78135.91;;;-145.25;50.56
54146;BME280;65909;49.422;7.738;2023-04-04T01:45:04;78137.91;;;-145.25;50.70
54146;BME280;65909;49.422;7.738;2023-04-04T01:47:40;78141.91;;;-145.25;50.38
54146;BME280;65909;49.422;7.738;2023-04-04T01:50:10;78133.88;;;-145.25;50.32
54146;BME280;65909;49.422;7.738;2023-04-04T01:52:36;78153.94;;;-145.25;51.69
54146;BME280;65909;49.422;7.738;2023-04-04T01:55:02;78151.94;;;-145.25;50.23
54146;BME280;65909;49.422;7.738;2023-04-04T01:57:28;78155.94;;;-145.25;51.02
54146;BME280;65909;49.422;7.738;2023-04-04T01:59:54;78153.94;;;-145.25;50.78
54146;BME280;65909;49.422;7.738;2023-04-04T02:02:19;78157.97;;;-145.25;50.66
54146;BME280;65909;49.422;7.738;2023-04-04T02:04:45;78157.97;;;-145.25;51.04
54146;BME280;65909;49.422;7.738;2023-04-04T02:07:10;78161.97;;;-145.25;50.56
54146;BME280;65909;49.422;7.738;2023-04-04T02:09:35;78165.97;;;-145.25;50.52
54146;BME280;65909;49.422;7.738;2023-04-04T02:12:01;78153.94;;;-145.25;50.44
54146;BME280;65909;49.422;7.738;2023-04-04T02:14:26;78161.97;;;-145.25;50.04
54146;BME280;65909;49.422;7.738;2023-04-04T02:16:51;78157.97;;;-145.25;49.94
54146;BME280;65909;49.422;7.738;2023-04-04T02:19:17;78167.97;;;-145.25;50.16
54146;BME280;65909;49.422;7.738;2023-04-04T02:21:43;78172.00;;;-145.25;50.52
54146;BME280;65909;49.422;7.738;2023-04-04T02:24:08;78172.00;;;-145.25;50.12
54146;BME280;65909;49.422;7.738;2023-04-04T02:26:34;78170.00;;;-145.25;51.17
54146;BME280;65909;49.422;7.738;2023-04-04T02:28:59;78182.03;;;-145.25;50.47
54146;BME280;65909;49.422;7.738;2023-04-04T02:31:24;78216.13;;;-145.25;51.97
54146;BME280;65909;49.422;7.738;2023-04-04T02:33:50;78234.16;;;-145.25;52.55
54146;BME280;65909;49.422;7.738;2023-04-04T02:36:15;78216.13;;;-145.25;53.41
54146;BME280;65909;49.422;7.738;2023-04-04T02:38:41;78222.13;;;-145.25;52.52
54146;BME280;65909;49.422;7.738;2023-04-04T02:41:06;78228.16;;;-145.25;52.52
54146;BME280;65909;49.422;7.738;2023-04-04T02:43:32;78234.16;;;-145.25;52.54
54146;BME280;65909;49.422;7.738;2023-04-04T02:45:57;78230.16;;;-145.25;53.10
54146;BME280;65909;49.422;7.738;2023-04-04T02:48:22;78224.16;;;-145.25;53.19
54146;BME280;65909;49.422;7.738;2023-04-04T02:50:49;78212.09;;;-145.25;53.08
54146;BME280;65909;49.422;7.738;2023-04-04T02:53:15;78206.09;;;-145.25;52.93
54146;BME280;65909;49.422;7.738;2023-04-04T02:55:40;78208.09;;;-145.25;53.11
54146;BME280;65909;49.422;7.738;2023-04-04T02:58:06;78226.16;;;-145.25;53.55
54146;BME280;65909;49.422;7.738;2023-04-04T03:00:32;78234.16;;;-145.25;53.67
54146;BME280;65909;49.422;7.738;2023-04-04T03:02:57;78224.16;;;-145.25;53.74
54146;BME280;65909;49.422;7.738;2023-04-04T03:05:23;78218.13;;;-145.25;54.49
54146;BME280;65909;49.422;7.738;2023-04-04T03:07:56;78224.16;;;-145.25;54.14
54146;BME280;65909;49.422;7.738;2023-04-04T03:10:26;78224.16;;;-145.25;54.32
54146;BME280;65909;49.422;7.738;2023-04-04T03:12:53;78242.19;;;-145.25;54.67
54146;BME280;65909;49.422;7.738;2023-04-04T03:15:19;78240.19;;;-145.25;54.45
54146;BME280;65909;49.422;7.738;2023-04-04T03:17:44;78236.19;;;-145.25;55.10
54146;BME280;65909;49.422;7.738;2023-04-04T03:20:11;78228.16;;;-145.25;54.47
54146;BME280;65909;49.422;7.738;2023-04-04T03:22:37;78242.19;;;-145.25;55.20
54146;BME280;65909;49.422;7.738;2023-04-04T03:25:02;78234.16;;;-145.25;55.13
54146;BME280;65909;49.422;7.738;2023-04-04T03:27:30;78230.16;;;-145.25;55.24
54146;BME280;65909;49.422;7.738;2023-04-04T03:29:56;78236.19;;;-145.25;56.68
54146;BME280;65909;49.422;7.738;2023-04-04T03:32:22;78236.19;;;-145.25;55.65
54146;BME280;65909;49.422;7.738;2023-04-04T03:34:47;78240.19;;;-145.25;55.90
54146;BME280;65909;49.422;7.738;2023-04-04T03:37:12;78236.19;;;-145.25;56.32
54146;BME280;65909;49.422;7.738;2023-04-04T03:39:38;78248.22;;;-145.25;56.76
54146;BME280;65909;49.422;7.738;2023-04-04T03:42:03;78258.25;;;-145.25;56.86
54146;BME280;65909;49.422;7.738;2023-04-04T03:44:28;78260.25;;;-145.25;57.00
54146;BME280;65909;49.422;7.738;2023-04-04T03:46:54;78232.16;;;-145.25;57.67
54146;BME280;65909;49.422;7.738;2023-04-04T03:49:19;78230.16;;;-145.25;56.66
54146;BME280;65909;49.422;7.738;2023-04-04T03:51:45;78234.16;;;-145.25;56.54
54146;BME280;65909;49.422;7.738;2023-04-04T03:54:11;78234.16;;;-145.25;56.75
54146;BME280;65909;49.422;7.738;2023-04-04T03:56:36;78234.16;;;-145.25;56.14
54146;BME280;65909;49.422;7.738;2023-04-04T03:59:01;78232.16;;;-145.25;56.40
54146;BME280;65909;49.422;7.738;2023-04-04T04:01:27;78232.16;;;-145.25;56.13
54146;BME280;65909;49.422;7.738;2023-04-04T04:03:52;78236.19;;;-145.25;56.72
54146;BME280;65909;49.422;7.738;2023-04-04T04:06:17;78248.22;;;-145.25;56.77
54146;BME280;65909;49.422;7.738;2023-04-04T04:08:43;78252.22;;;-145.25;56.84
54146;BME280;65909;49.422;7.738;2023-04-04T04:11:08;78246.22;;;-145.25;57.02
54146;BME280;65909;49.422;7.738;2023-04-04T04:13:34;78246.22;;;-145.25;57.58
54146;BME280;65909;49.422;7.738;2023-04-04T04:16:03;78240.19;;;-145.25;57.21
54146;BME280;65909;49.422;7.738;2023-04-04T04:18:28;78236.19;;;-145.25;56.78
54146;BME280;65909;49.422;7.738;2023-04-04T04:20:57;78248.22;;;-145.25;57.30
54146;BME280;65909;49.422;7.738;2023-04-04T04:23:23;78252.22;;;-145.25;57.27
54146;BME280;65909;49.422;7.738;2023-04-04T04:25:49;78258.25;;;-145.25;57.20
54146;BME280;65909;49.422;7.738;2023-04-04T04:28:14;78264.25;;;-145.25;57.85
54146;BME280;65909;49.422;7.738;2023-04-04T04:30:40;78264.25;;;-145.25;57.67
54146;BME280;65909;49.422;7.738;2023-04-04T04:33:05;78270.28;;;-145.25;58.59
54146;BME280;65909;49.422;7.738;2023-04-04T04:35:30;78268.28;;;-145.25;57.91
54146;BME280;65909;49.422;7.738;2023-04-04T04:37:56;78266.25;;;-145.25;58.17
54146;BME280;65909;49.422;7.738;2023-04-04T04:40:21;78274.28;;;-145.25;57.90
54146;BME280;65909;49.422;7.738;2023-04-04T04:42:46;78266.25;;;-145.25;58.68
54146;BME280;65909;49.422;7.738;2023-04-04T04:45:12;78276.28;;;-145.25;57.97
54146;BME280;65909;49.422;7.738;2023-04-04T04:47:37;78278.31;;;-145.25;58.14
54146;BME280;65909;49.422;7.738;2023-04-04T04:50:03;78276.28;;;-145.25;58.52
54146;BME280;65909;49.422;7.738;2023-04-04T04:52:28;78278.31;;;-145.25;58.23
54146;BME280;65909;49.422;7.738;2023-04-04T04:54:56;78278.31;;;-145.25;59.33
54146;BME280;65909;49.422;7.738;2023-04-04T04:57:21;78284.31;;;-145.25;58.69
54146;BME280;65909;49.422;7.738;2023-04-04T04:59:47;78282.31;;;-145.25;58.50
54146;BME280;65909;49.422;7.738;2023-04-04T05:02:12;78280.31;;;-145.25;59.19
54146;BME280;65909;49.422;7.738;2023-04-04T05:04:38;78286.31;;;-145.25;58.50
54146;BME280;65909;49.422;7.738;2023-04-04T05:07:05;78294.34;;;-145.25;58.74
54146;BME280;65909;49.422;7.738;2023-04-04T05:09:32;78298.34;;;-145.25;59.27
54146;BME280;65909;49.422;7.738;2023-04-04T05:11:58;78298.34;;;-145.25;59.51
54146;BME280;65909;49.422;7.738;2023-04-04T05:14:23;78306.38;;;-145.25;59.38
54146;BME280;65909;49.422;7.738;2023-04-04T05:16:48;78300.38;;;-145.25;59.30
54146;BME280;65909;49.422;7.738;2023-04-04T05:19:14;78290.34;;;-145.25;58.98
54146;BME280;65909;49.422;7.738;2023-04-04T05:21:39;78308.38;;;-145.25;59.06
54146;BME280;65909;49.422;7.738;2023-04-04T05:24:05;78292.34;;;-145.25;59.75
54146;BME280;65909;49.422;7.738;2023-04-04T05:26:30;78280.31;;;-145.25;59.00
54146;BME280;65909;49.422;7.738;2023-04-04T05:28:56;78278.31;;;-145.25;59.37
54146;BME280;65909;49.422;7.738;2023-04-04T05:31:23;78262.25;;;-145.25;58.75
54146;BME280;65909;49.422;7.738;2023-04-04T05:33:48;78256.22;;;-145.25;58.95
54146;BME280;65909;49.422;7.738;2023-04-04T05:36:14;78242.19;;;-145.25;58.72
54146;BME280;65909;49.422;7.738;2023-04-04T05:38:40;78236.19;;;-145.25;58.53
54146;BME280;65909;49.422;7.738;2023-04-04T05:41:05;78232.16;;;-145.25;58.82
54146;BME280;65909;49.422;7.738;2023-04-04T05:43:31;78238.19;;;-145.25;58.86
54146;BME280;65909;49.422;7.738;2023-04-04T05:45:56;78220.13;;;-145.25;59.18
54146;BME280;65909;49.422;7.738;2023-04-04T05:48:22;78204.09;;;-145.25;58.14
54146;BME280;65909;49.422;7.738;2023-04-04T05:50:47;78200.06;;;-145.25;58.82
54146;BME280;65909;49.422;7.738;2023-04-04T05:53:12;78190.03;;;-145.25;58.40
54146;BME280;65909;49.422;7.738;2023-04-04T05:55:38;78178.00;;;-145.25;57.88
54146;BME280;65909;49.422;7.738;2023-04-04T05:58:03;78161.97;;;-145.25;58.06
54146;BME280;65909;49.422;7.738;2023-04-04T06:00:29;78157.97;;;-145.25;57.50
54146;BME280;65909;49.422;7.738;2023-04-04T06:02:57;78149.94;;;-145.25;57.20
54146;BME280;65909;49.422;7.738;2023-04-04T06:05:24;78159.97;;;-145.25;57.56
54146;BME280;65909;49.422;7.738;2023-04-04T06:07:49;78147.94;;;-145.25;57.39
54146;BME280;65909;49.422;7.738;2023-04-04T06:10:15;78121.84;;;-145.25;57.00
54146;BME280;65909;49.422;7.738;2023-04-04T06:12:40;78087.75;;;-145.25;56.62
54146;BME280;65909;49.422;7.738;2023-04-04T06:15:06;78067.69;;;-145.25;56.02
54146;BME280;65909;49.422;7.738;2023-04-04T06:17:33;78041.63;;;-145.25;54.95
54146;BME280;65909;49.422;7.738;2023-04-04T06:19:58;77993.50;;;-145.25;54.17
54146;BME280;65909;49.422;7.738;2023-04-04T06:22:24;77939.34;;;-145.25;53.13
54146;BME280;65909;49.422;7.738;2023-04-04T06:24:49;77889.19;;;-145.25;52.06
54146;BME280;65909;49.422;7.738;2023-04-04T06:27:14;77829.03;;;-145.25;50.93
54146;BME280;65909;49.422;7.738;2023-04-04T06:29:40;77778.91;;;-145.25;49.17
54146;BME280;65909;49.422;7.738;2023-04-04T06:32:06;77742.78;;;-145.25;49.23
54146;BME280;65909;49.422;7.738;2023-04-04T06:34:32;77716.72;;;-145.25;48.48
54146;BME280;65909;49.422;7.738;2023-04-04T06:36:57;77714.72;;;-145.25;47.96
54146;BME280;65909;49.422;7.738;2023-04-04T06:39:22;77666.59;;;-145.25;47.58
54146;BME280;65909;49.422;7.738;2023-04-04T06:41:48;77608.44;;;-145.25;46.10
54146;BME280;65909;49.422;7.738;2023-04-04T06:44:13;77556.28;;;-145.25;45.64
54146;BME280;65909;49.422;7.738;2023-04-04T06:46:39;77514.16;;;-145.25;44.37
54146;BME280;65909;49.422;7.738;2023-04-04T06:49:04;77452.00;;;-145.25;43.89
54146;BME280;65909;49.422;7.738;2023-04-04T06:51:32;77381.81;;;-145.25;42.46
54146;BME280;65909;49.422;7.738;2023-04-04T06:53:59;77317.66;;;-145.25;41.65
54146;BME280;65909;49.422;7.738;2023-04-04T06:56:25;77239.44;;;-145.25;40.42
54146;BME280;65909;49.422;7.738;2023-04-04T06:58:51;77217.38;;;-145.25;40.62
54146;BME280;65909;49.422;7.738;2023-04-04T07:01:16;77131.16;;;-145.25;39.31
54146;BME280;65909;49.422;7.738;2023-04-04T07:03:42;77079.03;;;-145.25;38.46
54146;BME280;65909;49.422;7.738;2023-04-04T07:06:09;76996.81;;;-145.25;37.47
54146;BME280;65909;49.422;7.738;2023-04-04T07:08:34;76964.72;;;-145.25;36.89
54146;BME280;65909;49.422;7.738;2023-04-04T07:11:00;76858.47;;;-145.25;35.80
54146;BME280;65909;49.422;7.738;2023-04-04T07:13:25;76842.44;;;-145.25;35.24
54146;BME280;65909;49.422;7.738;2023-04-04T07:15:51;76804.31;;;-145.25;35.04
54146;BME280;65909;49.422;7.738;2023-04-04T07:18:16;76822.38;;;-145.25;34.52
54146;BME280;65909;49.422;7.738;2023-04-04T07:20:41;76732.16;;;-145.25;34.19
54146;BME280;65909;49.422;7.738;2023-04-04T07:23:09;76686.03;;;-145.25;33.63
54146;BME280;65909;49.422;7.738;2023-04-04T07:25:36;76784.28;;;-145.25;33.56
54146;BME280;65909;49.422;7.738;2023-04-04T07:28:02;76764.22;;;-145.25;33.40
54146;BME280;65909;49.422;7.738;2023-04-04T07:30:27;76750.19;;;-145.25;33.50
54146;BME280;65909;49.422;7.738;2023-04-04T07:33:00;76678.00;;;-145.25;32.56
54146;BME280;65909;49.422;7.738;2023-04-04T07:35:27;76672.00;;;-145.25;32.30
54146;BME280;65909;49.422;7.738;2023-04-04T07:37:53;76645.94;;;-145.25;32.12
54146;BME280;65909;49.422;7.738;2023-04-04T07:40:18;76657.97;;;-145.25;32.15
54146;BME280;65909;49.422;7.738;2023-04-04T07:42:45;76581.78;;;-145.25;31.77
54146;BME280;65909;49.422;7.738;2023-04-04T07:45:11;76547.69;;;-145.25;31.02
54146;BME280;65909;49.422;7.738;2023-04-04T07:47:37;76531.66;;;-145.25;30.97
54146;BME280;65909;49.422;7.738;2023-04-04T07:50:06;76461.47;;;-145.25;30.66
54146;BME280;65909;49.422;7.738;2023-04-04T07:52:32;76413.38;;;-145.25;29.65
54146;BME280;65909;49.422;7.738;2023-04-04T07:54:57;76361.25;;;-145.25;29.76
54146;BME280;65909;49.422;7.738;2023-04-04T07:57:24;76315.13;;;-145.25;29.02
54146;BME280;65909;49.422;7.738;2023-04-04T07:59:50;76222.91;;;-145.25;27.72
54146;BME280;65909;49.422;7.738;2023-04-04T08:02:15;76319.13;;;-145.25;27.94
54146;BME280;65909;49.422;7.738;2023-04-04T08:04:40;76212.88;;;-145.25;27.25
54146;BME280;65909;49.422;7.738;2023-04-04T08:07:06;76174.81;;;-145.25;26.21
54146;BME280;65909;49.422;7.738;2023-04-04T08:09:31;76226.91;;;-145.25;27.06
54146;BME280;65909;49.422;7.738;2023-04-04T08:11:59;76232.94;;;-145.25;27.10
54146;BME280;65909;49.422;7.738;2023-04-04T08:14:25;76188.84;;;-145.25;26.10
54146;BME280;65909;49.422;7.738;2023-04-04T08:16:51;76214.91;;;-145.25;26.32
54146;BME280;65909;49.422;7.738;2023-04-04T08:19:16;76104.63;;;-145.25;25.76
54146;BME280;65909;49.422;7.738;2023-04-04T08:21:42;76026.44;;;-145.25;25.42
54146;BME280;65909;49.422;7.738;2023-04-04T08:24:08;76036.47;;;-145.25;25.35
54146;BME280;65909;49.422;7.738;2023-04-04T08:26:34;76050.50;;;-145.25;25.65
54146;BME280;65909;49.422;7.738;2023-04-04T08:28:59;75928.22;;;-145.25;25.36
54146;BME280;65909;49.422;7.738;2023-04-04T08:31:25;75844.03;;;-145.25;24.84
54146;BME280;65909;49.422;7.738;2023-04-04T08:33:51;75910.19;;;-145.25;24.88
54146;BME280;65909;49.422;7.738;2023-04-04T08:36:16;75805.94;;;-145.25;24.32
54146;BME280;65909;49.422;7.738;2023-04-04T08:38:42;75819.97;;;-145.25;23.48
54146;BME280;65909;49.422;7.738;2023-04-04T08:41:08;75731.78;;;-145.25;23.76
54146;BME280;65909;49.422;7.738;2023-04-04T08:43:37;75669.66;;;-145.25;23.54
54146;BME280;65909;49.422;7.738;2023-04-04T08:46:06;75671.66;;;-145.25;23.83
54146;BME280;65909;49.422;7.738;2023-04-04T08:48:33;75749.81;;;-145.25;23.38
54146;BME280;65909;49.422;7.738;2023-04-04T08:50:59;75733.78;;;-145.25;22.75
54146;BME280;65909;49.422;7.738;2023-04-04T08:53:28;75828.00;;;-145.25;22.63
54146;BME280;65909;49.422;7.738;2023-04-04T08:55:54;75834.00;;;-145.25;23.29
54146;BME280;65909;49.422;7.738;2023-04-04T08:58:20;75631.56;;;-145.25;22.79
54146;BME280;65909;49.422;7.738;2023-04-04T09:00:45;75727.78;;;-145.25;22.18
54146;BME280;65909;49.422;7.738;2023-04-04T09:03:19;75789.91;;;-145.25;22.60
54146;BME280;65909;49.422;7.738;2023-04-04T09:05:46;75836.00;;;-145.25;22.44
54146;BME280;65909;49.422;7.738;2023-04-04T09:08:13;76002.41;;;-145.25;23.57
54146;BME280;65909;49.422;7.738;2023-04-04T09:10:40;75848.03;;;-145.25;22.87
54146;BME280;65909;49.422;7.738;2023-04-04T09:13:08;75817.97;;;-145.25;22.68
54146;BME280;65909;49.422;7.738;2023-04-04T09:15:34;75727.78;;;-145.25;23.14
54146;BME280;65909;49.422;7.738;2023-04-04T09:18:02;75603.50;;;-145.25;22.18
54146;BME280;65909;49.422;7.738;2023-04-04T09:20:41;75495.25;;;-145.25;22.04
54146;BME280;65909;49.422;7.738;2023-04-04T09:23:11;75431.13;;;-145.25;21.77
54146;BME280;65909;49.422;7.738;2023-04-04T09:25:43;75433.13;;;-145.25;22.05
54146;BME280;65909;49.422;7.738;2023-04-04T09:28:09;75387.03;;;-145.25;21.17
54146;BME280;65909;49.422;7.738;2023-04-04T09:30:35;75350.94;;;-145.25;21.52
54146;BME280;65909;49.422;7.738;2023-04-04T09:33:02;75425.09;;;-145.25;21.57
54146;BME280;65909;49.422;7.738;2023-04-04T09:35:28;75352.94;;;-145.25;21.82
54146;BME280;65909;49.422;7.738;2023-04-04T09:37:55;75320.88;;;-145.25;21.28
54146;BME280;65909;49.422;7.738;2023-04-04T09:40:21;75395.03;;;-145.25;20.90
54146;BME280;65909;49.422;7.738;2023-04-04T09:42:48;75344.94;;;-145.25;20.71
54146;BME280;65909;49.422;7.738;2023-04-04T09:45:13;75358.97;;;-145.25;20.52
54146;BME280;65909;49.422;7.738;2023-04-04T09:47:40;75276.78;;;-145.25;21.04
54146;BME280;65909;49.422;7.738;2023-04-04T09:50:08;75371.00;;;-145.25;20.67
54146;BME280;65909;49.422;7.738;2023-04-04T09:52:40;75338.91;;;-145.25;20.87
54146;BME280;65909;49.422;7.738;2023-04-04T09:55:06;75242.72;;;-145.25;20.80
54146;BME280;65909;49.422;7.738;2023-04-04T09:57:33;75158.53;;;-145.25;20.44
54146;BME280;65909;49.422;7.738;2023-04-04T10:00:02;75154.53;;;-145.25;20.15
54146;BME280;65909;49.422;7.738;2023-04-04T10:02:31;75320.88;;;-145.25;20.31
54146;BME280;65909;49.422;7.738;2023-04-04T10:04:57;75391.03;;;-145.25;20.57
54146;BME280;65909;49.422;7.738;2023-04-04T10:07:26;75278.78;;;-145.25;20.65
54146;BME280;65909;49.422;7.738;2023-04-04T10:09:53;75202.63;;;-145.25;20.28
54146;BME280;65909;49.422;7.738;2023-04-04T10:12:23;75210.66;;;-145.25;20.21
54146;BME280;65909;49.422;7.738;2023-04-04T10:14:56;75266.78;;;-145.25;20.00
54146;BME280;65909;49.422;7.738;2023-04-04T10:17:23;75288.81;;;-145.25;20.47
54146;BME280;65909;49.422;7.738;2023-04-04T10:19:50;75336.91;;;-145.25;20.48
54146;BME280;65909;49.422;7.738;2023-04-04T10:22:19;75399.06;;;-145.25;20.43
54146;BME280;65909;49.422;7.738;2023-04-04T10:24:45;75623.53;;;-145.25;21.07
54146;BME280;65909;49.422;7.738;2023-04-04T10:27:11;75699.72;;;-145.25;21.45
54146;BME280;65909;49.422;7.738;2023-04-04T10:29:36;75557.41;;;-145.25;21.68
54146;BME280;65909;49.422;7.738;2023-04-04T10:32:04;75439.13;;;-145.25;20.69
54146;BME280;65909;49.422;7.738;2023-04-04T10:34:44;75350.94;;;-145.25;20.83
54146;BME280;65909;49.422;7.738;2023-04-04T10:37:21;75278.78;;;-145.25;20.75
54146;BME280;65909;49.422;7.738;2023-04-04T10:39:52;75138.50;;;-145.25;20.17
54146;BME280;65909;49.422;7.738;2023-04-04T10:42:20;74990.19;;;-145.25;19.85
54146;BME280;65909;49.422;7.738;2023-04-04T10:44:47;75050.31;;;-145.25;20.40
54146;BME280;65909;49.422;7.738;2023-04-04T10:49:41;74885.97;;;-145.25;19.92
54146;BME280;65909;49.422;7.738;2023-04-04T10:52:10;74952.09;;;-145.25;20.29
54146;BME280;65909;49.422;7.738;2023-04-04T10:54:37;74777.75;;;-145.25;19.70
54146;BME280;65909;49.422;7.738;2023-04-04T10:57:04;74709.63;;;-145.25;19.37
54146;BME280;65909;49.422;7.738;2023-04-04T10:59:29;74617.44;;;-145.25;19.10
54146;BME280;65909;49.422;7.738;2023-04-04T11:01:56;74627.47;;;-145.25;18.89
54146;BME280;65909;49.422;7.738;2023-04-04T11:04:37;74673.56;;;-145.25;19.35
54146;BME280;65909;49.422;7.738;2023-04-04T11:07:16;74583.38;;;-145.25;19.17
54146;BME280;65909;49.422;7.738;2023-04-04T11:09:55;74559.31;;;-145.25;18.44
54146;BME280;65909;49.422;7.738;2023-04-04T11:15:15;74619.44;;;-145.25;18.97
54146;BME280;65909;49.422;7.738;2023-04-04T11:17:49;74651.50;;;-145.25;18.89
54146;BME280;65909;49.422;7.738;2023-04-04T11:20:23;74765.72;;;-145.25;18.65
54146;BME280;65909;49.422;7.738;2023-04-04T11:23:09;74845.91;;;-145.25;19.10
54146;BME280;65909;49.422;7.738;2023-04-04T11:25:40;74948.09;;;-145.25;19.33
54146;BME280;65909;49.422;7.738;2023-04-04T11:28:12;75092.41;;;-145.25;19.65
54146;BME280;65909;49.422;7.738;2023-04-04T11:30:40;75080.38;;;-145.25;20.38
54146;BME280;65909;49.422;7.738;2023-04-04T11:33:12;74928.06;;;-145.25;20.01
54146;BME280;65909;49.422;7.738;2023-04-04T11:35:38;74883.97;;;-145.25;20.13
54146;BME280;65909;49.422;7.738;2023-04-04T11:38:12;74875.97;;;-145.25;20.15
54146;BME280;65909;49.422;7.738;2023-04-04T11:40:39;74825.84;;;-145.25;19.85
54146;BME280;65909;49.422;7.738;2023-04-04T11:43:09;74753.72;;;-145.25;19.49
54146;BME280;65909;49.422;7.738;2023-04-04T11:45:36;74841.88;;;-145.25;20.06
54146;BME280;65909;49.422;7.738;2023-04-04T11:48:04;74691.59;;;-145.25;19.29
54146;BME280;65909;49.422;7.738;2023-04-04T11:50:34;74637.47;;;-145.25;19.17
54146;BME280;65909;49.422;7.738;2023-04-04T11:53:04;74765.72;;;-145.25;20.40
54146;BME280;65909;49.422;7.738;2023-04-04T11:55:30;74813.81;;;-145.25;20.20
54146;BME280;65909;49.422;7.738;2023-04-04T11:57:55;74721.66;;;-145.25;19.50
54146;BME280;65909;49.422;7.738;2023-04-04T12:00:28;74531.28;;;-145.25;18.85
54146;BME280;65909;49.422;7.738;2023-04-04T12:02:54;74565.34;;;-145.25;19.21
54146;BME280;65909;49.422;7.738;2023-04-04T12:05:21;74559.31;;;-145.25;19.44
54146;BME280;65909;49.422;7.738;2023-04-04T12:07:47;74669.53;;;-145.25;20.03
54146;BME280;65909;49.422;7.738;2023-04-04T12:10:13;74705.63;;;-145.25;19.63
54146;BME280;65909;49.422;7.738;2023-04-04T12:12:38;74663.53;;;-145.25;19.88
54146;BME280;65909;49.422;7.738;2023-04-04T12:15:06;74629.47;;;-145.25;19.96
54146;BME280;65909;49.422;7.738;2023-04-04T12:17:32;74543.28;;;-145.25;19.69
54146;BME280;65909;49.422;7.738;2023-04-04T12:19:58;74691.59;;;-145.25;19.75
54146;BME280;65909;49.422;7.738;2023-04-04T12:22:24;74599.41;;;-145.25;19.18
54146;BME280;65909;49.422;7.738;2023-04-04T12:24:49;74673.56;;;-145.25;19.09
54146;BME280;65909;49.422;7.738;2023-04-04T12:27:14;74785.78;;;-145.25;19.37
54146;BME280;65909;49.422;7.738;2023-04-04T12:29:40;74741.69;;;-145.25;19.29
54146;BME280;65909;49.422;7.738;2023-04-04T12:32:06;74739.69;;;-145.25;19.95
54146;BME280;65909;49.422;7.738;2023-04-04T12:34:33;74809.81;;;-145.25;19.52
54146;BME280;65909;49.422;7.738;2023-04-04T12:37:00;74892.00;;;-145.25;19.61
54146;BME280;65909;49.422;7.738;2023-04-04T12:39:27;74962.13;;;-145.25;19.62
54146;BME280;65909;49.422;7.738;2023-04-04T12:41:56;74877.97;;;-145.25;20.09
54146;BME280;65909;49.422;7.738;2023-04-04T12:44:28;74807.81;;;-145.25;19.23